Time;durP1;ratioP1;P1;durP2;ratioP2;P2;SDS_P1;SDS_P2;PMS_P1;PMS_P2;Temp;Humidity;BMP_temperature;BMP_pressure;BME280_temperature;BME280_humidity;BME280_pressure;Samples;Min_cycle;Max_cycle;Signal;HPM_P1;HPM_P2
2022/11/04 03:47:32;;;;;;;;;;;12.10;75.00;;;;;;5236922;23;89088;-72
2022/11/04 03:50:16;;;;;;;0.22;0.00;;;12.10;77.60;;;;;;4861541;29;86717;-75
2022/11/04 03:52:42;;;;;;;0.20;0.00;;;12.10;76.80;;;;;;4844456;29;86303;-74
2022/11/04 03:55:09;;;;;;;0.22;0.00;;;12.10;76.40;;;;;;4841893;29;85494;-74
2022/11/04 03:57:57;;;;;;;1.85;0.00;;;12.10;77.30;;;;;;4834372;29;87201;-73
2022/11/04 04:00:24;;;;;;;0.57;0.03;;;12.00;77.80;;;;;;4845180;29;86412;-73
2022/11/04 04:03:08;;;;;;;0.10;0.00;;;11.90;77.50;;;;;;4845591;29;87920;-74
2022/11/04 04:05:52;;;;;;;0.25;0.00;;;11.90;77.30;;;;;;4846243;29;86450;-73
2022/11/04 04:08:36;;;;;;;0.20;0.00;;;11.80;76.40;;;;;;4845422;29;86488;-73
2022/11/04 04:11:17;;;;;;;0.40;0.00;;;11.80;77.50;;;;;;4830675;29;87087;-72
2022/11/04 04:14:04;;;;;;;0.40;0.00;;;11.80;79.00;;;;;;4845659;29;86931;-73
2022/11/04 04:16:36;;;;;;;0.30;0.00;;;11.90;79.10;;;;;;4846266;29;86168;-74
2022/11/04 04:19:19;;;;;;;0.90;0.00;;;11.90;79.40;;;;;;4843736;29;88356;-72
2022/11/04 04:21:53;;;;;;;1.33;0.00;;;11.80;80.10;;;;;;4840390;29;86961;-73
2022/11/04 04:29:53;;;;;;;0.30;0.00;;;11.80;79.50;;;;;;4826457;29;87302;-73
2022/11/04 04:32:23;;;;;;;0.52;0.00;;;11.80;79.70;;;;;;4826282;29;87072;-72
2022/11/04 04:34:48;;;;;;;0.32;0.00;;;11.80;79.80;;;;;;4832423;29;86896;-73
2022/11/04 04:37:20;;;;;;;0.25;0.00;;;11.80;79.60;;;;;;4844464;29;86308;-74
2022/11/04 04:45:35;;;;;;;0.40;0.10;;;11.80;79.80;;;;;;4827853;29;86686;-73
2022/11/04 04:48:01;;;;;;;0.40;0.00;;;11.80;79.80;;;;;;4863417;29;85975;-73
2022/11/04 04:50:32;;;;;;;0.73;0.00;;;11.80;80.10;;;;;;4845346;29;87636;-72
2022/11/04 04:52:59;;;;;;;0.30;0.00;;;11.70;79.70;;;;;;4843398;29;89071;-73
2022/11/04 04:55:25;;;;;;;0.30;0.00;;;11.70;79.40;;;;;;4845091;29;87801;-74
2022/11/04 04:57:51;;;;;;;0.40;0.00;;;11.70;79.70;;;;;;4844235;29;86961;-73
2022/11/04 05:00:19;;;;;;;0.45;0.00;;;11.70;79.70;;;;;;4844931;29;87686;-73
2022/11/04 05:02:44;;;;;;;0.60;0.10;;;11.70;79.30;;;;;;4840670;29;86989;-74
2022/11/04 05:05:12;;;;;;;0.20;0.00;;;11.70;79.40;;;;;;4844097;29;86390;-75
2022/11/04 05:07:38;;;;;;;0.68;0.00;;;11.60;80.10;;;;;;4844987;29;86394;-73
2022/11/04 05:10:05;;;;;;;0.50;0.00;;;11.60;80.20;;;;;;4844655;29;87124;-73
2022/11/04 05:15:15;;;;;;;0.73;0.00;;;11.60;81.50;;;;;;4855296;29;86740;-74
2022/11/04 05:17:41;;;;;;;0.17;0.00;;;11.60;81.50;;;;;;4834635;29;87321;-73
2022/11/04 05:20:07;;;;;;;0.80;0.10;;;11.60;82.20;;;;;;4834468;29;88766;-73
2022/11/04 05:22:33;;;;;;;1.10;0.10;;;11.60;82.40;;;;;;4827451;29;87865;-73
2022/11/04 05:24:59;;;;;;;0.40;0.10;;;11.50;82.50;;;;;;4845217;29;86637;-73
2022/11/04 05:27:24;;;;;;;0.43;0.08;;;11.50;82.80;;;;;;4837655;29;86373;-74
2022/11/04 05:29:50;;;;;;;0.40;0.00;;;11.50;83.30;;;;;;4825714;29;87546;-74
2022/11/04 05:32:16;;;;;;;1.33;0.10;;;11.40;83.10;;;;;;4835237;29;86317;-74
2022/11/04 05:34:41;;;;;;;0.88;0.20;;;11.40;83.10;;;;;;4834746;29;87186;-73
2022/11/04 05:37:07;;;;;;;1.70;0.32;;;11.40;82.60;;;;;;4843485;29;85949;-73
2022/11/04 05:39:33;;;;;;;1.77;0.30;;;11.40;82.50;;;;;;4844073;29;87189;-73
2022/11/04 05:41:59;;;;;;;0.65;0.03;;;11.30;82.40;;;;;;4844703;29;86446;-74
2022/11/04 05:44:25;;;;;;;2.40;0.75;;;11.30;82.50;;;;;;4840565;29;87308;-76
2022/11/04 05:46:51;;;;;;;3.10;1.27;;;11.30;82.40;;;;;;4837457;29;87172;-74
2022/11/04 05:49:17;;;;;;;0.22;0.03;;;11.20;82.20;;;;;;4834372;29;86646;-73
2022/11/04 05:51:43;;;;;;;1.45;0.00;;;11.20;81.40;;;;;;4842513;29;88513;-73
2022/11/04 05:54:09;;;;;;;0.85;0.10;;;11.20;81.30;;;;;;4842821;29;87041;-72
2022/11/04 05:56:35;;;;;;;0.20;0.00;;;11.10;80.60;;;;;;4834243;29;86332;-72
2022/11/04 05:59:00;;;;;;;0.55;0.00;;;11.20;80.60;;;;;;4843202;29;86597;-72
2022/11/04 06:01:26;;;;;;;0.73;0.00;;;11.20;80.60;;;;;;4838316;29;87245;-72
2022/11/04 06:03:52;;;;;;;2.75;0.20;;;11.10;81.60;;;;;;4844599;29;86337;-72
2022/11/04 06:06:18;;;;;;;1.40;0.10;;;11.10;81.40;;;;;;4842049;28;87006;-75
2022/11/04 06:08:44;;;;;;;0.25;0.00;;;11.10;80.90;;;;;;4844993;29;88076;-73
2022/11/04 06:11:10;;;;;;;1.58;0.10;;;11.10;80.40;;;;;;4843975;29;87179;-72
2022/11/04 06:13:35;;;;;;;1.30;0.00;;;11.10;80.40;;;;;;4846466;29;87090;-73
2022/11/04 06:16:01;;;;;;;0.20;0.00;;;11.00;80.50;;;;;;4844782;29;86191;-73
2022/11/04 06:18:27;;;;;;;0.63;0.00;;;11.00;80.50;;;;;;4845313;29;87224;-72
2022/11/04 06:21:14;;;;;;;0.40;0.00;;;11.00;80.90;;;;;;4845347;29;87159;-72
2022/11/04 06:23:41;;;;;;;0.63;0.00;;;10.90;80.70;;;;;;4847169;29;86649;-73
2022/11/04 06:26:07;;;;;;;1.58;0.00;;;10.90;81.30;;;;;;4842864;29;85950;-76
2022/11/04 06:28:33;;;;;;;0.32;0.10;;;10.90;81.50;;;;;;4848413;29;86895;-74
2022/11/04 06:31:01;;;;;;;0.20;0.00;;;10.90;81.30;;;;;;4843079;29;86839;-74
2022/11/04 06:33:28;;;;;;;0.57;0.10;;;10.90;81.50;;;;;;4843481;29;88600;-75
2022/11/04 06:35:59;;;;;;;0.30;0.00;;;10.90;81.30;;;;;;4840537;29;86573;-76
2022/11/04 06:38:25;;;;;;;0.25;0.00;;;10.90;81.30;;;;;;4852216;29;87221;-76
2022/11/04 06:40:51;;;;;;;0.52;0.00;;;10.80;82.30;;;;;;4843622;29;87163;-73
2022/11/04 06:43:16;;;;;;;0.40;0.00;;;10.80;81.60;;;;;;4844753;29;86929;-75
2022/11/04 06:45:42;;;;;;;0.20;0.00;;;10.70;81.50;;;;;;4844899;29;86792;-76
2022/11/04 06:48:08;;;;;;;0.20;0.00;;;10.70;81.90;;;;;;4857545;28;89273;-77
2022/11/04 06:50:33;;;;;;;0.28;0.00;;;10.70;81.40;;;;;;4844151;29;86318;-74
2022/11/04 06:52:59;;;;;;;0.38;0.00;;;10.60;81.50;;;;;;4844912;29;86749;-73
2022/11/04 06:55:25;;;;;;;0.35;0.00;;;10.70;81.60;;;;;;4847145;29;86964;-73
2022/11/04 06:57:51;;;;;;;0.25;0.00;;;10.70;82.40;;;;;;4847070;29;87662;-76
2022/11/04 07:00:17;;;;;;;0.20;0.00;;;10.80;82.30;;;;;;4845197;29;87904;-74
2022/11/04 07:02:43;;;;;;;0.30;0.00;;;10.80;82.20;;;;;;4848141;29;86625;-76
2022/11/04 07:05:09;;;;;;;0.30;0.00;;;10.80;82.90;;;;;;4844764;29;86859;-75
2022/11/04 07:07:34;;;;;;;2.80;0.00;;;10.80;84.80;;;;;;4852098;29;86731;-74
2022/11/04 07:10:00;;;;;;;0.60;0.10;;;10.80;82.80;;;;;;4837322;29;86908;-76
2022/11/04 07:12:26;;;;;;;0.73;0.00;;;10.70;88.80;;;;;;4848037;29;87107;-76
2022/11/04 07:14:52;;;;;;;0.70;0.00;;;10.90;83.90;;;;;;4847372;29;85793;-76
2022/11/04 07:17:17;;;;;;;0.35;0.00;;;10.80;83.10;;;;;;4853004;29;87309;-74
2022/11/04 07:19:44;;;;;;;2.45;0.00;;;10.90;82.30;;;;;;4843427;29;87374;-77
2022/11/04 07:22:09;;;;;;;0.70;0.10;;;10.90;82.70;;;;;;4854021;29;87304;-75
2022/11/04 07:24:35;;;;;;;0.57;0.03;;;10.90;82.70;;;;;;4850224;29;86826;-77
2022/11/04 07:27:01;;;;;;;1.17;0.10;;;10.90;82.40;;;;;;4848172;29;88822;-75
2022/11/04 07:29:27;;;;;;;0.43;0.10;;;10.90;82.60;;;;;;4849286;29;87557;-75
2022/11/04 07:31:53;;;;;;;1.02;0.10;;;10.90;83.20;;;;;;4856901;29;86712;-76
2022/11/04 07:34:19;;;;;;;1.27;0.10;;;10.80;83.50;;;;;;4840230;29;86606;-75
2022/11/04 07:36:44;;;;;;;0.55;0.03;;;10.90;83.40;;;;;;4850175;29;87062;-75
2022/11/04 07:39:10;;;;;;;1.00;0.10;;;10.90;83.60;;;;;;4850572;29;86185;-75
2022/11/04 07:41:36;;;;;;;0.95;0.10;;;10.90;83.60;;;;;;4856737;29;87271;-75
2022/11/04 07:44:04;;;;;;;0.95;0.10;;;10.80;83.70;;;;;;4851004;29;86417;-74
2022/11/04 07:46:30;;;;;;;2.25;0.15;;;10.80;83.80;;;;;;4854815;29;87368;-75
2022/11/04 07:48:57;;;;;;;0.98;0.10;;;10.80;83.60;;;;;;4851371;29;88037;-75
2022/11/04 07:51:23;;;;;;;1.02;0.10;;;10.70;84.50;;;;;;4854831;29;86712;-76
2022/11/04 07:53:49;;;;;;;1.52;0.10;;;10.80;83.50;;;;;;4845297;29;87127;-76
2022/11/04 07:56:16;;;;;;;2.10;0.10;;;10.80;83.80;;;;;;4846807;29;87453;-76
2022/11/04 07:58:42;;;;;;;0.80;0.10;;;10.80;83.70;;;;;;4841851;29;88350;-75
2022/11/04 08:01:11;;;;;;;1.00;0.10;;;10.80;84.00;;;;;;4846205;29;86223;-75
2022/11/04 08:03:37;;;;;;;0.35;0.13;;;10.80;84.30;;;;;;4847215;29;86882;-75
2022/11/04 08:06:04;;;;;;;0.30;0.00;;;10.80;83.60;;;;;;4846838;29;87209;-75
2022/11/04 08:08:30;;;;;;;0.77;0.10;;;10.80;83.80;;;;;;4843962;29;86306;-76
2022/11/04 08:11:06;;;;;;;0.13;0.00;;;10.80;83.10;;;;;;4841469;29;87804;-75
2022/11/04 08:13:34;;;;;;;0.20;0.00;;;10.90;82.60;;;;;;4848198;29;86384;-76
2022/11/04 08:16:02;;;;;;;1.30;0.00;;;10.90;80.90;;;;;;4847299;29;87025;-76
2022/11/04 08:18:33;;;;;;;0.95;0.10;;;11.00;80.80;;;;;;4846472;29;86256;-76
2022/11/04 08:21:01;;;;;;;1.05;0.10;;;11.10;81.10;;;;;;4843091;29;87098;-75
2022/11/04 08:23:28;;;;;;;0.70;0.00;;;11.20;80.70;;;;;;4846871;29;86485;-76
2022/11/04 08:25:53;;;;;;;0.47;0.00;;;11.20;80.50;;;;;;4844288;29;88234;-75
2022/11/04 08:28:19;;;;;;;0.35;0.00;;;11.30;79.70;;;;;;4844858;29;89233;-75
2022/11/04 08:31:25;;;;;;;0.25;0.00;;;11.30;80.30;;;;;;4847716;29;86958;-75
2022/11/04 08:33:51;;;;;;;0.70;0.00;;;11.40;79.70;;;;;;4846226;29;86834;-76
2022/11/04 08:36:29;;;;;;;0.60;0.10;;;11.50;80.40;;;;;;4847127;29;89661;-75
2022/11/04 08:38:55;;;;;;;0.30;0.00;;;11.50;79.60;;;;;;4844247;29;87919;-75
2022/11/04 08:41:24;;;;;;;0.85;0.00;;;11.50;78.60;;;;;;4846462;29;86432;-76
2022/11/04 08:43:50;;;;;;;0.20;0.00;;;11.60;79.00;;;;;;4840114;29;86826;-75
2022/11/04 08:46:16;;;;;;;0.32;0.00;;;11.50;78.10;;;;;;4849485;29;86784;-76
2022/11/04 08:48:42;;;;;;;1.13;0.00;;;11.60;79.10;;;;;;4846438;29;86858;-75
2022/11/04 08:51:27;;;;;;;0.30;0.00;;;11.70;79.30;;;;;;4850305;29;86669;-77
2022/11/04 08:53:53;;;;;;;0.70;0.00;;;11.70;78.30;;;;;;4851874;28;86294;-77
2022/11/04 08:56:25;;;;;;;0.50;0.00;;;11.80;78.80;;;;;;4849052;29;87191;-78
2022/11/04 08:58:52;;;;;;;0.70;0.00;;;11.80;78.80;;;;;;4842352;29;87009;-75
2022/11/04 09:01:19;;;;;;;0.20;0.00;;;11.80;78.20;;;;;;4843990;28;87268;-76
2022/11/04 09:03:46;;;;;;;0.65;0.00;;;11.80;77.70;;;;;;4849818;29;87485;-74
2022/11/04 09:06:18;;;;;;;0.28;0.00;;;11.80;77.30;;;;;;4841027;29;90902;-75
2022/11/04 09:08:44;;;;;;;0.85;0.00;;;11.80;78.40;;;;;;4849650;29;87020;-74
2022/11/04 09:11:12;;;;;;;0.25;0.00;;;11.90;78.30;;;;;;4841359;29;86424;-75
2022/11/04 09:13:38;;;;;;;0.60;0.00;;;11.90;76.90;;;;;;4851581;29;86938;-75
2022/11/04 09:16:04;;;;;;;0.65;0.00;;;12.00;77.50;;;;;;4853703;28;87099;-75
2022/11/04 09:18:30;;;;;;;0.47;0.20;;;12.10;78.20;;;;;;4850798;29;88420;-75
2022/11/04 09:20:59;;;;;;;0.40;0.00;;;12.10;77.60;;;;;;4853188;28;87037;-75
2022/11/04 09:23:25;;;;;;;0.80;0.17;;;12.20;77.80;;;;;;4856596;28;87162;-75
2022/11/04 09:25:51;;;;;;;1.17;0.10;;;12.40;77.50;;;;;;4843322;29;87948;-75
2022/11/04 09:28:17;;;;;;;2.28;0.10;;;12.50;78.30;;;;;;4846965;29;88628;-75
2022/11/04 09:30:42;;;;;;;1.27;0.10;;;12.60;76.60;;;;;;4843893;29;86329;-76
2022/11/04 09:33:08;;;;;;;0.40;0.00;;;12.70;77.30;;;;;;4842815;29;87119;-76
2022/11/04 09:35:34;;;;;;;1.75;0.00;;;12.60;75.60;;;;;;4842363;29;86795;-77
2022/11/04 09:38:00;;;;;;;0.50;0.00;;;12.60;74.90;;;;;;4831667;29;86642;-76
2022/11/04 09:40:27;;;;;;;0.90;0.20;;;12.70;76.10;;;;;;4842901;29;86377;-75
2022/11/04 09:43:31;;;;;;;0.40;0.10;;;12.70;76.00;;;;;;4844423;29;86203;-78
2022/11/04 09:45:58;;;;;;;0.65;0.03;;;12.80;74.20;;;;;;4849315;29;88239;-75
2022/11/04 09:48:54;;;;;;;0.30;0.00;;;12.80;74.10;;;;;;4855223;29;88313;-75
2022/11/04 09:51:23;;;;;;;0.75;0.03;;;12.90;75.10;;;;;;4851529;29;87990;-75
2022/11/04 09:53:51;;;;;;;3.83;0.20;;;12.90;73.80;;;;;;4841520;29;86290;-76
2022/11/04 09:56:27;;;;;;;0.88;0.00;;;12.90;74.20;;;;;;4852371;29;86560;-74
2022/11/04 09:58:53;;;;;;;0.65;0.00;;;13.00;73.80;;;;;;4840947;29;87130;-75
2022/11/04 10:01:42;;;;;;;0.28;0.00;;;13.00;71.90;;;;;;4851288;29;87010;-76
2022/11/04 10:04:10;;;;;;;0.55;0.00;;;13.20;72.20;;;;;;4846052;29;86720;-76
2022/11/04 10:07:04;;;;;;;1.70;0.00;;;13.30;73.20;;;;;;4846958;29;87886;-76
2022/11/04 10:10:17;;;;;;;0.52;0.00;;;13.40;71.30;;;;;;4845056;29;86937;-74
2022/11/04 10:13:00;;;;;;;0.60;0.03;;;13.50;71.20;;;;;;4841158;29;86662;-75
2022/11/04 10:15:26;;;;;;;0.25;0.00;;;13.50;70.00;;;;;;4852459;28;86508;-77
2022/11/04 10:18:14;;;;;;;1.27;0.10;;;13.60;70.20;;;;;;4844330;29;88365;-76
2022/11/04 10:20:54;;;;;;;4.63;0.10;;;13.70;71.00;;;;;;4844321;29;87886;-76
2022/11/04 10:23:33;;;;;;;5.28;0.10;;;13.70;69.30;;;;;;4845157;29;86329;-76
2022/11/04 10:26:18;;;;;;;4.15;0.10;;;13.80;70.10;;;;;;4844764;29;86832;-75
2022/11/04 10:28:56;;;;;;;0.68;0.00;;;13.80;67.60;;;;;;4836431;29;86793;-77
2022/11/04 10:31:22;;;;;;;0.45;0.00;;;13.80;68.90;;;;;;4840399;29;87046;-75
2022/11/04 10:34:06;;;;;;;0.50;0.10;;;13.90;70.50;;;;;;4837794;29;86492;-75
2022/11/04 10:36:33;;;;;;;0.15;0.00;;;13.80;68.30;;;;;;4845585;29;86658;-75
2022/11/04 10:39:03;;;;;;;0.20;0.00;;;13.90;69.90;;;;;;4845341;29;87215;-76
2022/11/04 10:41:39;;;;;;;0.47;0.00;;;13.90;67.70;;;;;;4839897;29;88602;-76
2022/11/04 10:44:07;;;;;;;;;;;14.00;68.40;;;;;;4845743;29;87628;-75
2022/11/04 10:46:58;;;;;;;0.98;0.10;;;14.00;67.90;;;;;;4842744;29;87024;-73
2022/11/04 10:49:38;;;;;;;0.40;0.00;;;14.10;68.60;;;;;;4848404;29;86704;-75
2022/11/04 10:52:06;;;;;;;1.73;0.05;;;14.10;67.00;;;;;;4838988;29;86970;-76
2022/11/04 10:54:44;;;;;;;0.13;0.00;;;14.10;67.60;;;;;;4850102;29;86341;-75
2022/11/04 10:57:12;;;;;;;2.55;0.10;;;14.30;70.50;;;;;;4842039;29;86762;-74
2022/11/04 10:59:56;;;;;;;0.40;0.00;;;14.50;72.60;;;;;;4848649;28;87224;-76
2022/11/04 11:02:45;;;;;;;0.63;0.13;;;14.60;67.50;;;;;;4841529;29;86755;-75
2022/11/04 11:05:16;;;;;;;1.17;0.10;;;14.80;67.40;;;;;;4850952;29;87633;-75
2022/11/04 11:07:44;;;;;;;2.05;0.00;;;14.80;66.60;;;;;;4845923;29;86237;-75
2022/11/04 11:10:21;;;;;;;0.28;0.00;;;14.90;66.40;;;;;;4845461;28;87711;-76
2022/11/04 11:13:03;;;;;;;0.65;0.10;;;15.00;68.40;;;;;;4844429;29;87092;-75
2022/11/04 11:15:33;;;;;;;2.42;0.00;;;15.00;67.60;;;;;;4842647;29;86996;-75
2022/11/04 11:18:05;;;;;;;1.27;0.10;;;15.10;65.10;;;;;;4848970;29;86866;-76
2022/11/04 11:20:33;;;;;;;0.40;0.00;;;15.20;64.50;;;;;;4847946;29;86547;-76
2022/11/04 11:23:00;;;;;;;0.57;0.10;;;15.40;64.60;;;;;;4846013;29;87456;-73
2022/11/04 11:25:55;;;;;;;0.60;0.10;;;15.50;65.70;;;;;;4844535;29;87291;-76
2022/11/04 11:28:24;;;;;;;0.40;0.10;;;15.60;64.80;;;;;;4848447;28;85978;-75
2022/11/04 11:30:57;;;;;;;0.68;0.20;;;15.70;64.60;;;;;;4846729;29;87005;-75
2022/11/04 11:33:35;;;;;;;0.93;0.20;;;15.90;64.70;;;;;;4853294;29;86949;-75
2022/11/04 11:36:31;;;;;;;2.58;0.13;;;16.00;65.10;;;;;;4832911;29;87260;-75
2022/11/04 11:39:12;;;;;;;0.77;0.10;;;16.10;62.20;;;;;;4846054;29;86871;-75
2022/11/04 11:42:11;;;;;;;2.15;0.20;;;16.10;62.40;;;;;;4848483;29;87294;-75
2022/11/04 11:44:47;;;;;;;1.25;0.10;;;15.90;63.80;;;;;;4846605;29;86832;-76
2022/11/04 11:47:18;;;;;;;31.65;1.17;;;15.80;62.70;;;;;;4836652;29;86636;-76
2022/11/04 11:49:44;;;;;;;22.48;1.00;;;15.90;63.50;;;;;;4835593;29;87035;-74
2022/11/04 11:52:37;;;;;;;37.90;0.85;;;16.00;62.90;;;;;;4841420;29;86520;-76
2022/11/04 11:55:11;;;;;;;4.82;0.10;;;15.60;63.90;;;;;;4830932;29;88443;-75
2022/11/04 11:57:44;;;;;;;2.72;0.28;;;15.50;64.00;;;;;;4845519;29;86986;-75
2022/11/04 12:00:14;;;;;;;1.15;0.10;;;15.50;65.00;;;;;;4847465;29;87024;-75
2022/11/04 12:02:39;;;;;;;;;;;15.50;64.20;;;;;;4844807;29;89357;-75
2022/11/04 12:05:10;;;;;;;2.60;1.27;;;15.20;64.30;;;;;;4848106;29;87880;-76
2022/11/04 12:07:53;;;;;;;0.77;0.10;;;15.20;65.30;;;;;;4848563;29;87020;-74
2022/11/04 12:10:37;;;;;;;4.45;0.13;;;15.10;65.80;;;;;;4846978;29;86784;-80
2022/11/04 12:13:17;;;;;;;1.20;0.10;;;15.10;65.10;;;;;;4839198;29;88045;-75
2022/11/04 12:16:10;;;;;;;1.25;0.10;;;15.00;64.80;;;;;;4843084;29;87176;-74
2022/11/04 12:18:51;;;;;;;1.98;0.10;;;15.10;65.90;;;;;;4835214;29;86334;-74
2022/11/04 12:21:25;;;;;;;13.00;0.30;;;15.20;65.70;;;;;;4840667;29;86356;-71
2022/11/04 12:23:58;;;;;;;1.92;0.10;;;15.10;65.40;;;;;;4840514;29;86589;-73
2022/11/04 12:26:46;;;;;;;6.05;0.10;;;15.20;64.20;;;;;;4830299;29;86679;-73
2022/11/04 12:29:26;;;;;;;1.88;0.10;;;15.20;65.30;;;;;;4827038;29;88993;-73
2022/11/04 12:32:21;;;;;;;1.33;0.20;;;15.40;63.30;;;;;;4833025;29;88109;-73
2022/11/04 12:35:02;;;;;;;6.30;0.20;;;15.40;64.90;;;;;;4846066;29;87221;-73
2022/11/04 12:37:40;;;;;;;2.85;0.20;;;15.30;64.60;;;;;;4837824;29;86918;-73
2022/11/04 12:40:19;;;;;;;0.52;0.10;;;15.30;63.10;;;;;;4845808;29;86955;-73
2022/11/04 12:43:04;;;;;;;5.07;0.10;;;15.30;62.40;;;;;;4848847;29;86928;-73
2022/11/04 12:46:11;;;;;;;1.35;0.10;;;15.30;64.40;;;;;;4845336;29;87692;-73
2022/11/04 12:48:59;;;;;;;0.40;0.10;;;15.40;63.80;;;;;;4843152;29;86274;-73
2022/11/04 12:51:49;;;;;;;1.08;0.10;;;15.50;63.80;;;;;;4847067;29;86582;-73
2022/11/04 12:54:32;;;;;;;0.70;0.10;;;15.40;61.00;;;;;;4845505;29;86945;-73
2022/11/04 12:57:09;;;;;;;;;;;15.50;63.80;;;;;;4844515;29;88641;-73
2022/11/04 13:00:05;;;;;;;0.52;0.10;;;15.60;64.10;;;;;;4847929;29;87512;-73
2022/11/04 13:02:53;;;;;;;0.70;0.10;;;15.60;65.10;;;;;;4844649;29;86527;-73
2022/11/04 13:05:52;;;;;;;0.65;0.03;;;15.70;62.80;;;;;;4840626;29;86282;-73
2022/11/04 13:08:30;;;;;;;13.82;0.13;;;15.60;63.30;;;;;;4843748;29;86616;-73
2022/11/04 13:11:23;;;;;;;8.13;0.10;;;15.60;62.60;;;;;;4845898;28;86992;-72
2022/11/04 13:14:12;;;;;;;1.25;0.30;;;15.50;64.40;;;;;;4845712;29;86341;-73
2022/11/04 13:16:40;;;;;;;1.25;0.20;;;15.50;63.60;;;;;;4845826;29;87498;-73
2022/11/04 13:19:32;;;;;;;1.08;0.10;;;15.50;66.00;;;;;;4848527;29;88034;-73
2022/11/04 13:22:04;;;;;;;4.35;0.10;;;15.50;61.30;;;;;;4846339;29;86620;-73
2022/11/04 13:24:32;;;;;;;2.08;0.13;;;15.40;62.00;;;;;;4849008;28;88003;-73
2022/11/04 13:27:02;;;;;;;1.83;0.20;;;15.40;62.40;;;;;;4851243;29;87398;-74
2022/11/04 13:29:33;;;;;;;3.67;0.50;;;15.30;64.00;;;;;;4842758;29;88180;-74
2022/11/04 13:32:07;;;;;;;1.25;0.20;;;15.20;63.20;;;;;;4842510;29;86917;-74
2022/11/04 13:35:01;;;;;;;2.70;0.40;;;15.20;63.10;;;;;;4844550;29;86373;-74
2022/11/04 13:37:38;;;;;;;2.17;0.30;;;15.20;63.40;;;;;;4842377;29;86389;-74
2022/11/04 13:40:19;;;;;;;0.73;0.10;;;15.20;62.60;;;;;;4852289;29;86415;-74
2022/11/04 13:43:36;;;;;;;1.40;0.20;;;15.20;63.00;;;;;;4844889;29;86265;-74
2022/11/04 13:45:52;;;;;;;2.65;0.20;;;15.20;61.40;;;;;;4840835;29;86354;-72
2022/11/04 13:48:21;;;;;;;2.42;0.20;;;15.10;61.10;;;;;;4837726;29;86673;-73
2022/11/04 13:51:09;;;;;;;1.73;0.25;;;15.10;61.30;;;;;;4847283;29;88057;-74
2022/11/04 13:53:48;;;;;;;1.23;0.10;;;15.10;63.30;;;;;;4849485;28;87672;-74
2022/11/04 13:56:26;;;;;;;4.22;0.20;;;15.10;62.30;;;;;;4853097;29;87084;-74
2022/11/04 13:58:55;;;;;;;3.58;0.10;;;14.90;61.30;;;;;;4847555;29;86969;-74
2022/11/04 14:01:20;;;;;;;1.27;0.10;;;14.90;62.50;;;;;;4846497;29;86645;-73
2022/11/04 14:04:03;;;;;;;1.20;0.10;;;14.90;61.60;;;;;;4847192;29;86410;-74
2022/11/04 14:07:05;;;;;;;1.88;0.10;;;14.90;60.60;;;;;;4845497;29;86415;-74
2022/11/04 14:09:42;;;;;;;0.88;0.10;;;14.80;59.60;;;;;;4838558;29;86476;-73
2022/11/04 14:12:15;;;;;;;3.42;0.20;;;14.70;59.90;;;;;;4846919;29;86983;-74
2022/11/04 14:14:59;;;;;;;1.60;0.10;;;14.70;60.60;;;;;;4842713;29;87049;-74
2022/11/04 14:17:33;;;;;;;2.88;0.20;;;14.80;61.00;;;;;;4840917;29;87503;-74
2022/11/04 14:20:00;;;;;;;2.08;0.20;;;14.90;61.40;;;;;;4836873;29;86955;-74
2022/11/04 14:22:49;;;;;;;2.15;0.20;;;14.90;61.60;;;;;;4844020;29;87715;-73
2022/11/04 14:25:25;;;;;;;2.38;0.20;;;14.90;61.30;;;;;;4840518;29;88118;-74
2022/11/04 14:28:14;;;;;;;2.58;0.20;;;14.70;61.40;;;;;;4848636;28;86531;-73
2022/11/04 14:30:48;;;;;;;2.30;0.10;;;14.80;62.10;;;;;;4837502;28;86803;-74
2022/11/04 14:33:35;;;;;;;3.35;0.32;;;14.80;62.00;;;;;;4847364;29;87326;-74
2022/11/04 14:36:24;;;;;;;1.55;0.20;;;14.70;61.40;;;;;;4835872;29;86888;-74
2022/11/04 14:38:55;;;;;;;8.00;0.20;;;14.60;63.00;;;;;;4836273;29;86740;-74
2022/11/04 14:41:23;;;;;;;1.67;0.28;;;14.50;62.50;;;;;;4844415;29;86482;-72
2022/11/04 14:43:52;;;;;;;2.05;0.20;;;14.40;63.80;;;;;;4843831;29;88291;-74
2022/11/04 14:46:21;;;;;;;2.50;0.20;;;14.30;64.00;;;;;;4848392;28;87680;-74
2022/11/04 14:48:51;;;;;;;1.90;0.17;;;14.10;64.70;;;;;;4843703;28;87142;-74
2022/11/04 14:51:37;;;;;;;3.17;0.28;;;14.00;65.10;;;;;;4844625;29;86280;-74
2022/11/04 14:54:19;;;;;;;1.10;0.20;;;13.90;66.30;;;;;;4842611;29;87250;-73
2022/11/04 14:56:45;;;;;;;4.43;0.28;;;13.70;67.10;;;;;;4842156;29;87059;-73
2022/11/04 14:59:21;;;;;;;6.63;0.20;;;13.70;66.60;;;;;;4847099;29;86502;-73
2022/11/04 15:01:48;;;;;;;3.15;0.20;;;13.60;66.80;;;;;;4844424;28;85868;-73
2022/11/04 15:04:25;;;;;;;1.98;0.28;;;13.50;67.50;;;;;;4840438;29;87590;-73
2022/11/04 15:07:02;;;;;;;3.83;0.60;;;13.40;67.60;;;;;;4848399;29;87526;-72
2022/11/04 15:09:31;;;;;;;2.15;0.22;;;13.30;67.70;;;;;;4851909;28;87905;-73
2022/11/04 15:14:53;;;;;;;;;;;13.10;68.80;;;;;;4843365;29;87107;-73
2022/11/04 15:17:20;;;;;;;1.90;0.20;;;12.90;69.10;;;;;;4855844;29;86763;-73
2022/11/04 15:19:58;;;;;;;5.82;0.60;;;12.90;69.40;;;;;;4842826;29;87460;-73
2022/11/04 15:22:24;;;;;;;2.83;0.77;;;12.80;70.20;;;;;;4844194;29;86289;-73
2022/11/04 15:24:50;;;;;;;3.33;0.80;;;12.70;70.60;;;;;;4851110;29;87177;-74
2022/11/04 15:27:17;;;;;;;3.60;0.70;;;12.60;71.10;;;;;;4855223;29;86990;-73
2022/11/04 15:29:59;;;;;;;5.88;0.68;;;12.50;71.80;;;;;;4834314;29;86810;-73
2022/11/04 15:32:25;;;;;;;4.55;0.80;;;12.40;73.30;;;;;;4849916;29;86439;-73
2022/11/04 15:34:52;;;;;;;2.50;0.75;;;12.30;73.30;;;;;;4848595;29;89535;-73
2022/11/04 15:37:18;;;;;;;7.45;2.70;;;12.30;73.60;;;;;;4843656;29;87110;-73
2022/11/04 15:39:46;;;;;;;18.40;6.38;;;12.30;74.30;;;;;;4846562;29;87209;-73
2022/11/04 15:42:38;;;;;;;35.20;15.13;;;12.30;74.70;;;;;;4838258;29;86931;-73
2022/11/04 15:45:50;;;;;;;31.90;14.70;;;12.30;74.90;;;;;;4845830;29;87233;-73
2022/11/04 15:48:30;;;;;;;30.80;12.32;;;12.30;74.60;;;;;;4843945;29;86718;-73
2022/11/04 15:51:08;;;;;;;22.73;9.75;;;12.30;74.60;;;;;;4844855;29;87033;-73
2022/11/04 15:54:07;;;;;;;16.38;7.72;;;12.30;75.10;;;;;;4831908;29;85844;-73
2022/11/04 15:56:44;;;;;;;14.57;5.72;;;12.30;75.20;;;;;;4842220;29;87495;-73
2022/11/04 15:59:17;;;;;;;11.65;4.32;;;12.30;75.40;;;;;;4849119;29;87088;-73
2022/11/04 16:01:46;;;;;;;11.48;4.00;;;12.30;75.20;;;;;;4837775;29;87763;-73
2022/11/04 16:04:13;;;;;;;12.00;2.90;;;12.30;75.70;;;;;;4839090;29;87023;-73
2022/11/04 16:06:41;;;;;;;8.23;2.63;;;12.30;75.50;;;;;;4838509;29;87232;-73
2022/11/04 16:09:20;;;;;;;18.60;6.85;;;12.30;75.30;;;;;;4848985;29;87495;-74
2022/11/04 16:12:31;;;;;;;28.98;11.10;;;12.30;74.90;;;;;;4834698;29;86826;-73
2022/11/04 16:14:58;;;;;;;33.33;15.80;;;12.30;75.20;;;;;;4840261;29;86298;-73
2022/11/04 16:17:25;;;;;;;43.00;17.52;;;12.30;74.90;;;;;;4849657;29;87240;-73
2022/11/04 16:20:03;;;;;;;41.35;18.73;;;12.30;74.80;;;;;;4836094;29;87066;-75
2022/11/04 16:22:39;;;;;;;37.97;16.35;;;12.30;75.10;;;;;;4844739;29;86332;-74
2022/11/04 16:25:09;;;;;;;33.47;13.13;;;12.30;75.30;;;;;;4847617;29;86876;-74
2022/11/04 16:27:35;;;;;;;28.05;11.55;;;12.30;76.00;;;;;;4837882;29;87713;-74
2022/11/04 16:30:15;;;;;;;21.02;8.68;;;12.30;75.20;;;;;;4840880;29;87078;-74
2022/11/04 16:32:56;;;;;;;17.95;6.35;;;12.20;75.40;;;;;;4842189;28;87154;-74
2022/11/04 16:35:23;;;;;;;12.05;4.65;;;12.20;75.70;;;;;;4841292;29;86817;-73
2022/11/04 16:37:50;;;;;;;9.05;3.83;;;12.20;75.50;;;;;;4838128;29;87177;-74
2022/11/04 16:40:17;;;;;;;12.18;3.55;;;12.20;75.80;;;;;;4836447;29;86781;-74
2022/11/04 16:42:43;;;;;;;5.38;2.60;;;12.20;76.10;;;;;;4844485;29;86862;-74
2022/11/04 16:45:23;;;;;;;6.72;1.63;;;12.10;75.60;;;;;;4839467;29;86003;-74
2022/11/04 16:47:48;;;;;;;5.53;1.52;;;12.10;75.70;;;;;;4843392;29;87229;-74
2022/11/04 16:50:15;;;;;;;8.55;1.73;;;12.10;76.40;;;;;;4846209;29;86300;-74
2022/11/04 16:52:42;;;;;;;6.72;1.27;;;12.10;75.70;;;;;;4846527;29;87853;-74
2022/11/04 16:55:08;;;;;;;6.43;1.15;;;12.10;76.10;;;;;;4846653;29;86964;-73
2022/11/04 16:57:34;;;;;;;6.20;1.35;;;12.10;76.50;;;;;;4848226;29;87735;-74
2022/11/04 17:00:00;;;;;;;4.50;1.00;;;12.10;77.00;;;;;;4842913;29;86893;-74
2022/11/04 17:02:29;;;;;;;6.43;0.98;;;12.10;76.70;;;;;;4846090;29;86871;-74
2022/11/04 17:04:56;;;;;;;5.32;1.10;;;12.10;76.80;;;;;;4842484;29;86846;-74
2022/11/04 17:07:22;;;;;;;13.38;5.30;;;12.00;76.40;;;;;;4850765;29;87442;-74
2022/11/04 17:09:48;;;;;;;16.55;6.80;;;12.10;76.30;;;;;;4847560;28;86263;-74
2022/11/04 17:12:14;;;;;;;21.88;9.18;;;12.00;76.40;;;;;;4843451;29;86731;-74
2022/11/04 17:14:40;;;;;;;15.95;6.90;;;12.00;76.50;;;;;;4846132;28;87906;-74
2022/11/04 17:17:07;;;;;;;14.27;5.10;;;12.00;76.70;;;;;;4839812;29;88661;-74
2022/11/04 17:19:32;;;;;;;13.38;4.72;;;12.00;76.60;;;;;;4848090;29;87483;-74